Time;durP1;ratioP1;P1;durP2;ratioP2;P2;SDS_P1;SDS_P2;PMS_P1;PMS_P2;Temp;Humidity;BMP_temperature;BMP_pressure;BME280_temperature;BME280_humidity;BME280_pressure;Samples;Min_cycle;Max_cycle;Signal;HPM_P1;HPM_P2
2023/03/03 00:01:58;;;;;;;6.67;4.33;;;0.50;99.90;;;1.40;100.00;98452.22;5045282;28;20563;-76
2023/03/03 00:04:27;;;;;;;8.27;4.30;;;0.70;99.90;;;1.40;100.00;98449.66;5043005;28;20907;-76
2023/03/03 00:06:56;;;;;;;9.67;3.97;;;0.60;99.90;;;1.37;100.00;98452.47;5047403;28;20550;-76
2023/03/03 00:09:26;;;;;;;11.10;4.53;;;0.60;99.90;;;1.32;100.00;98450.25;5045556;28;21195;-76
2023/03/03 00:12:00;;;;;;;8.37;4.30;;;0.50;99.90;;;1.31;100.00;98447.81;5045739;28;20468;-76
2023/03/03 00:14:33;;;;;;;19.03;5.30;;;0.50;99.90;;;1.28;100.00;98448.88;5046413;28;20560;-76
2023/03/03 00:17:17;;;;;;;10.00;4.53;;;0.40;99.90;;;1.26;100.00;98461.03;5043154;28;20466;-76
2023/03/03 00:19:46;;;;;;;8.40;4.67;;;0.40;99.90;;;1.25;100.00;98449.06;5044309;28;20547;-77
2023/03/03 00:22:27;;;;;;;5.87;3.73;;;0.40;99.90;;;1.25;100.00;98449.06;5046287;28;20453;-76
2023/03/03 00:24:55;;;;;;;10.30;4.90;;;0.40;99.90;;;1.19;100.00;98448.75;5045767;28;20543;-76
2023/03/03 00:27:31;;;;;;;7.73;4.60;;;0.30;99.90;;;1.10;100.00;98449.47;5046003;28;22407;-76
2023/03/03 00:30:02;;;;;;;9.63;4.93;;;0.10;99.90;;;1.16;100.00;98449.81;5044605;28;20472;-75
2023/03/03 00:32:42;;;;;;;12.47;4.70;;;0.20;99.90;;;1.10;100.00;98454.59;5045681;28;20497;-76
2023/03/03 00:35:26;;;;;;;12.00;5.10;;;0.20;99.90;;;1.09;100.00;98448.63;5043810;28;20459;-76
2023/03/03 00:37:58;;;;;;;11.37;5.23;;;0.10;99.90;;;1.01;100.00;98451.78;5043226;28;20462;-76
2023/03/03 00:40:33;;;;;;;11.40;4.73;;;0.20;99.90;;;1.06;100.00;98448.06;5043972;28;20476;-75
2023/03/03 00:43:17;;;;;;;8.53;4.30;;;0.10;99.90;;;1.03;100.00;98449.13;5043109;28;21367;-76
2023/03/03 00:45:50;;;;;;;10.77;5.40;;;0.20;99.90;;;0.94;100.00;98457.53;5043948;28;20583;-76
2023/03/03 00:48:26;;;;;;;6.20;4.00;;;0.00;99.90;;;0.88;100.00;98453.66;5043721;28;20488;-76
2023/03/03 00:50:58;;;;;;;8.33;4.83;;;-0.10;99.90;;;0.93;100.00;98455.91;5044178;28;21191;-76
2023/03/03 00:53:30;;;;;;;7.70;4.30;;;0.00;99.90;;;0.98;100.00;98454.59;5044565;28;20969;-76
2023/03/03 00:55:59;;;;;;;11.50;4.90;;;0.10;99.90;;;0.96;100.00;98456.50;5046275;28;20842;-76
2023/03/03 00:58:29;;;;;;;9.17;4.50;;;0.00;99.90;;;0.95;100.00;98456.59;5046243;28;20512;-76
2023/03/03 01:01:00;;;;;;;7.00;4.40;;;0.10;99.90;;;0.94;100.00;98460.91;5043596;28;21130;-77
2023/03/03 01:03:33;;;;;;;7.80;4.33;;;0.00;99.90;;;0.97;100.00;98465.03;5044156;28;20496;-76
2023/03/03 01:06:05;;;;;;;7.00;3.90;;;0.10;99.90;;;0.86;100.00;98467.59;5043768;28;20524;-76
2023/03/03 01:08:35;;;;;;;10.20;4.97;;;0.00;99.90;;;0.91;100.00;98465.47;5043492;28;20466;-76
2023/03/03 01:11:09;;;;;;;9.57;4.80;;;0.10;99.90;;;0.88;100.00;98466.53;5042547;28;20529;-76
2023/03/03 01:13:42;;;;;;;8.00;3.43;;;0.10;99.90;;;0.80;100.00;98461.13;5045134;28;20457;-76
2023/03/03 01:16:14;;;;;;;6.13;4.10;;;-0.10;99.90;;;0.78;100.00;98464.78;5044053;28;20507;-76
2023/03/03 01:18:43;;;;;;;7.93;3.73;;;-0.10;99.90;;;0.76;100.00;98471.81;5044868;28;20518;-76
2023/03/03 01:21:13;;;;;;;8.63;4.53;;;-0.20;99.90;;;0.74;100.00;98471.09;5045201;28;20464;-75
2023/03/03 01:23:43;;;;;;;19.73;3.73;;;-0.20;99.90;;;0.70;100.00;98472.25;5045949;28;20509;-76
2023/03/03 01:26:15;;;;;;;5.90;3.83;;;-0.30;99.90;;;0.71;100.00;98473.88;5042953;28;20499;-76
2023/03/03 01:28:44;;;;;;;9.30;4.83;;;-0.20;99.90;;;0.68;100.00;98474.13;5044134;28;20916;-76
2023/03/03 01:31:15;;;;;;;10.07;4.97;;;-0.30;99.90;;;0.58;100.00;98468.03;5044929;28;21043;-76
2023/03/03 01:33:45;;;;;;;6.17;4.47;;;-0.40;99.90;;;0.57;100.00;98462.06;5043595;28;20468;-76
2023/03/03 01:36:15;;;;;;;4.30;3.60;;;-0.30;99.90;;;0.52;100.00;98459.81;5044205;28;20453;-76
2023/03/03 01:38:45;;;;;;;9.00;4.50;;;-0.30;99.90;;;0.50;100.00;98453.16;5043149;28;20717;-76
2023/03/03 01:41:15;;;;;;;9.40;3.73;;;-0.40;99.90;;;0.55;100.00;98463.09;5043572;28;21007;-76
2023/03/03 01:43:47;;;;;;;9.60;3.87;;;-0.40;99.90;;;0.52;100.00;98459.81;5043129;28;20482;-76
2023/03/03 01:46:55;;;;;;;6.70;4.00;;;-0.40;99.90;;;0.43;100.00;98454.53;5046244;28;20505;-76
2023/03/03 01:49:31;;;;;;;6.53;4.20;;;-0.50;99.90;;;0.43;100.00;98455.38;5018449;28;20475;-81
2023/03/03 01:52:08;;;;;;;5.10;3.40;;;-0.50;99.90;;;0.43;100.00;98459.69;5046901;28;20465;-76
2023/03/03 01:54:44;;;;;;;6.77;4.20;;;-0.50;99.90;;;0.43;100.00;98455.38;5043838;28;20514;-76
2023/03/03 01:57:20;;;;;;;6.13;4.33;;;-0.50;99.90;;;0.42;100.00;98456.28;5045161;28;21019;-76
2023/03/03 01:59:53;;;;;;;6.07;4.33;;;-0.60;99.90;;;0.49;100.00;98454.06;5046316;28;20487;-76
2023/03/03 02:02:26;;;;;;;7.57;4.50;;;-0.50;99.90;;;0.41;100.00;98451.28;5045328;28;20460;-77
2023/03/03 02:04:57;;;;;;;9.80;4.67;;;-0.60;99.90;;;0.43;100.00;98457.94;5044932;28;20566;-76
2023/03/03 02:07:30;;;;;;;6.33;3.47;;;-0.50;99.90;;;0.25;100.00;98453.31;5045081;28;20539;-76
2023/03/03 02:10:06;;;;;;;9.90;3.30;;;-0.70;99.90;;;0.16;100.00;98447.13;5046184;28;20460;-76
2023/03/03 02:12:42;;;;;;;7.23;4.30;;;-0.80;99.90;;;0.20;100.00;98453.69;5042987;28;20464;-76
2023/03/03 02:15:24;;;;;;;6.33;3.87;;;-0.80;99.90;;;0.23;100.00;98453.44;5043656;28;20492;-76
2023/03/03 02:17:57;;;;;;;6.33;4.10;;;-0.70;99.90;;;0.22;100.00;98444.09;5046303;28;20467;-76
2023/03/03 02:20:52;;;;;;;6.17;3.43;;;-0.70;99.90;;;0.20;100.00;98448.53;5044872;28;20461;-76
2023/03/03 02:23:30;;;;;;;8.47;3.83;;;-0.70;99.90;;;0.25;100.00;98441.28;5031019;28;20542;-76
2023/03/03 02:26:15;;;;;;;9.10;3.93;;;-0.70;99.90;;;0.22;100.00;98436.38;5043422;28;20464;-76
2023/03/03 02:28:44;;;;;;;6.07;3.53;;;-0.70;99.90;;;0.24;100.00;98439.66;5043302;28;20673;-76
2023/03/03 02:31:17;;;;;;;4.77;3.00;;;-0.60;99.90;;;0.19;100.00;98439.19;5043490;28;20457;-76
2023/03/03 02:33:50;;;;;;;6.93;4.03;;;-0.60;99.90;;;0.25;100.00;98446.44;5041552;28;20473;-76
2023/03/03 02:36:24;;;;;;;8.33;3.57;;;-0.70;99.90;;;0.24;100.00;98444.00;5041823;28;20901;-76
2023/03/03 02:39:02;;;;;;;7.80;3.67;;;-0.60;99.90;;;0.24;100.00;98434.53;5044456;28;20623;-76
2023/03/03 02:41:40;;;;;;;5.87;3.40;;;-0.50;99.90;;;0.23;100.00;98442.34;5042360;28;20514;-75
2023/03/03 02:44:12;;;;;;;6.67;3.60;;;-0.60;99.90;;;0.25;100.00;98445.59;5041315;28;20632;-76
2023/03/03 02:46:45;;;;;;;7.57;4.17;;;-0.60;99.90;;;0.22;100.00;98438.94;5044202;28;20542;-76
2023/03/03 02:49:19;;;;;;;5.53;3.73;;;-0.70;99.90;;;0.15;100.00;98437.75;5044742;28;20467;-76
2023/03/03 02:51:49;;;;;;;6.73;3.50;;;-0.80;99.90;;;0.08;100.00;98436.56;5042518;28;20463;-76
2023/03/03 02:54:22;;;;;;;8.03;3.60;;;-0.80;99.90;;;0.07;100.00;98440.06;5043289;28;20462;-76
2023/03/03 02:56:53;;;;;;;5.37;2.93;;;-0.90;99.90;;;0.08;100.00;98444.28;5044620;28;20469;-77
2023/03/03 02:59:23;;;;;;;7.87;4.00;;;-0.80;99.90;;;0.07;100.00;98442.63;5045444;28;20466;-76
2023/03/03 03:01:52;;;;;;;7.77;4.37;;;-0.70;99.90;;;0.07;100.00;98441.84;5043196;28;20472;-77
2023/03/03 03:04:25;;;;;;;7.13;3.63;;;-0.80;99.90;;;-0.04;100.00;98440.03;5041830;28;20495;-76
2023/03/03 03:06:56;;;;;;;6.67;3.53;;;-0.90;99.90;;;-0.11;100.00;98446.56;5044139;28;20469;-76
2023/03/03 03:09:27;;;;;;;6.50;3.80;;;-1.10;99.90;;;-0.09;100.00;98442.94;5043743;28;20461;-76
2023/03/03 03:11:58;;;;;;;11.00;3.63;;;-1.00;99.90;;;-0.07;100.00;98441.06;5043671;28;21183;-76
2023/03/03 03:14:28;;;;;;;4.20;3.47;;;-1.00;99.90;;;-0.07;100.00;98440.25;5043009;28;20470;-76
2023/03/03 03:16:57;;;;;;;7.90;3.30;;;-0.90;99.90;;;-0.12;100.00;98445.72;5044483;28;20537;-76
2023/03/03 03:19:28;;;;;;;5.60;3.57;;;-1.00;99.90;;;-0.07;100.00;98446.19;5043321;28;20456;-76
2023/03/03 03:21:58;;;;;;;6.63;3.80;;;-1.00;99.90;;;-0.12;100.00;98452.63;5044453;28;20491;-76
2023/03/03 03:24:28;;;;;;;7.27;3.27;;;-1.00;99.90;;;-0.09;100.00;98457.53;5042972;28;21078;-76
2023/03/03 03:27:00;;;;;;;5.37;3.60;;;-1.00;99.90;;;-0.15;100.00;98453.66;5043036;28;20983;-76
2023/03/03 03:29:29;;;;;;;6.30;3.50;;;-1.10;99.90;;;-0.21;100.00;98455.84;5044586;28;20468;-76
2023/03/03 03:31:59;;;;;;;6.37;3.37;;;-1.20;99.90;;;-0.21;100.00;98459.22;5044481;28;20468;-76
2023/03/03 03:34:27;;;;;;;6.23;3.73;;;-1.10;99.90;;;-0.26;100.00;98460.47;5043573;28;20470;-76
2023/03/03 03:36:58;;;;;;;5.00;3.20;;;-1.20;99.90;;;-0.24;100.00;98461.19;5042744;28;20469;-76
2023/03/03 03:39:27;;;;;;;9.70;4.70;;;-1.20;99.90;;;-0.25;100.00;98462.97;5041617;28;20858;-76
2023/03/03 03:41:59;;;;;;;6.07;3.60;;;-1.20;99.90;;;-0.26;100.00;98460.47;5041813;28;20519;-76
2023/03/03 03:44:28;;;;;;;5.47;3.50;;;-1.20;99.90;;;-0.21;100.00;98458.44;5039827;28;20569;-76
2023/03/03 03:46:58;;;;;;;6.37;3.43;;;-1.10;99.90;;;-0.22;100.00;98451.63;5042662;28;20564;-76
2023/03/03 03:49:28;;;;;;;6.80;4.03;;;-1.20;99.90;;;-0.31;100.00;98455.66;5041738;28;20464;-76
2023/03/03 03:51:57;;;;;;;7.60;3.90;;;-1.20;99.90;;;-0.25;100.00;98452.69;5041084;28;20472;-76
2023/03/03 03:54:27;;;;;;;5.70;3.30;;;-1.20;99.90;;;-0.26;100.00;98451.03;5043206;28;20966;-76
2023/03/03 03:56:56;;;;;;;5.23;3.70;;;-1.20;99.90;;;-0.28;100.00;98462.34;5043654;28;20471;-76
2023/03/03 03:59:27;;;;;;;9.60;3.93;;;-1.10;99.90;;;-0.33;100.00;98464.41;5044752;28;20492;-76
2023/03/03 04:01:56;;;;;;;4.37;3.27;;;-1.30;99.90;;;-0.42;100.00;98463.34;5044128;28;20461;-76
2023/03/03 04:04:25;;;;;;;4.70;3.00;;;-1.40;99.90;;;-0.38;100.00;98458.81;5043325;28;21335;-76
2023/03/03 04:06:56;;;;;;;5.07;3.17;;;-1.30;99.90;;;-0.40;100.00;98456.31;5046293;28;21224;-76
2023/03/03 04:09:25;;;;;;;5.40;3.37;;;-1.40;99.90;;;-0.41;100.00;98454.69;5046167;28;20509;-76
2023/03/03 04:11:55;;;;;;;4.63;2.70;;;-1.30;99.90;;;-0.39;100.00;98457.16;5044745;28;20469;-77
2023/03/03 04:14:26;;;;;;;6.90;3.50;;;-1.30;99.90;;;-0.37;100.00;98456.09;5045240;28;20472;-75
2023/03/03 04:16:56;;;;;;;3.30;3.00;;;-1.30;99.90;;;-0.41;100.00;98462.38;5044318;28;20477;-76
2023/03/03 04:19:25;;;;;;;8.13;3.70;;;-1.30;99.90;;;-0.36;100.00;98454.38;5044906;28;20552;-77
2023/03/03 04:21:54;;;;;;;7.37;3.63;;;-1.30;99.90;;;-0.36;100.00;98454.38;5041689;28;20535;-76
2023/03/03 04:24:23;;;;;;;6.80;3.77;;;-1.30;99.90;;;-0.32;100.00;98459.19;5045189;28;20554;-77
2023/03/03 04:26:54;;;;;;;16.43;7.37;;;-1.20;99.90;;;-0.36;100.00;98459.50;5043857;28;20568;-77
2023/03/03 04:29:23;;;;;;;6.50;3.60;;;-1.20;99.90;;;-0.31;100.00;98462.56;5045231;28;20470;-77
2023/03/03 04:31:54;;;;;;;5.73;3.60;;;-1.20;99.90;;;-0.31;100.00;98462.56;5045503;28;20522;-76
2023/03/03 04:34:24;;;;;;;4.33;2.67;;;-1.20;99.90;;;-0.30;100.00;98456.50;5046474;28;20465;-77
2023/03/03 04:36:52;;;;;;;5.57;3.40;;;-1.20;99.90;;;-0.27;100.00;98458.84;5047039;28;20497;-76
2023/03/03 04:39:22;;;;;;;5.77;3.43;;;-1.20;99.90;;;-0.29;100.00;98458.13;5044224;28;20477;-77
2023/03/03 04:41:52;;;;;;;9.10;3.23;;;-1.20;99.90;;;-0.28;100.00;98467.50;5047367;28;20484;-76
2023/03/03 04:44:21;;;;;;;5.90;3.40;;;-1.20;99.90;;;-0.27;100.00;98463.97;5047152;28;20891;-76
2023/03/03 04:46:50;;;;;;;3.90;3.00;;;-1.20;99.90;;;-0.30;100.00;98459.88;5047699;28;20500;-76
2023/03/03 04:49:21;;;;;;;7.37;3.73;;;-1.10;99.90;;;-0.32;100.00;98460.94;5047196;28;20461;-76
2023/03/03 04:51:50;;;;;;;8.23;4.40;;;-1.20;99.90;;;-0.34;100.00;98467.91;5047117;28;20464;-76
2023/03/03 04:54:19;;;;;;;5.77;3.67;;;-1.40;99.90;;;-0.35;100.00;98458.59;5047204;28;20461;-76
2023/03/03 04:56:48;;;;;;;5.20;3.17;;;-1.30;99.90;;;-0.32;100.00;98463.50;5045215;28;20465;-76
2023/03/03 04:59:17;;;;;;;6.40;3.67;;;-1.20;99.90;;;-0.37;100.00;98465.56;5046825;28;20859;-76
2023/03/03 05:01:47;;;;;;;4.53;3.10;;;-1.30;99.90;;;-0.36;100.00;98468.03;5046716;28;20494;-76
2023/03/03 05:04:18;;;;;;;4.50;3.20;;;-1.20;99.90;;;-0.35;100.00;98472.25;5046849;28;20652;-76
2023/03/03 05:06:48;;;;;;;5.87;3.53;;;-1.30;99.90;;;-0.36;100.00;98472.34;5046094;28;20509;-76
2023/03/03 05:09:18;;;;;;;8.40;4.23;;;-1.20;99.90;;;-0.36;100.00;98477.47;5047342;28;20460;-76
2023/03/03 05:11:48;;;;;;;6.30;3.50;;;-1.30;99.90;;;-0.35;100.00;98479.97;5046388;28;20468;-76
2023/03/03 05:14:18;;;;;;;5.57;3.90;;;-1.20;99.90;;;-0.35;100.00;98484.28;5046402;28;21287;-76
2023/03/03 05:16:47;;;;;;;5.40;3.53;;;-1.20;99.90;;;-0.38;100.00;98481.91;5047592;28;20465;-76
2023/03/03 05:19:17;;;;;;;7.47;3.70;;;-1.30;99.90;;;-0.42;100.00;98485.63;5047171;28;20457;-76
2023/03/03 05:21:48;;;;;;;13.47;4.30;;;-1.30;99.90;;;-0.43;100.00;98489.94;5047675;28;20888;-76
2023/03/03 05:24:18;;;;;;;4.97;3.87;;;-1.40;99.90;;;-0.46;100.00;98484.19;5045916;28;20950;-76
2023/03/03 05:26:49;;;;;;;6.30;3.77;;;-1.40;99.90;;;-0.45;100.00;98486.63;5045090;28;21255;-76
2023/03/03 05:29:19;;;;;;;4.83;2.80;;;-1.40;99.90;;;-0.45;100.00;98488.41;5042402;28;20469;-77
2023/03/03 05:31:49;;;;;;;6.87;4.20;;;-1.30;99.90;;;-0.44;100.00;98482.31;5042082;28;20975;-77
2023/03/03 05:34:19;;;;;;;6.77;3.77;;;-1.30;99.90;;;-0.48;100.00;98486.84;5045380;28;20463;-76
2023/03/03 05:36:51;;;;;;;6.27;3.70;;;-1.40;99.90;;;-0.52;100.00;98491.38;5043083;28;20523;-76
2023/03/03 05:39:22;;;;;;;9.30;4.33;;;-1.40;99.90;;;-0.51;100.00;98493.03;5042593;28;20460;-76
2023/03/03 05:41:52;;;;;;;12.30;3.83;;;-1.40;99.90;;;-0.49;100.00;98492.13;5044595;28;20477;-76
2023/03/03 05:44:21;;;;;;;8.37;4.40;;;-1.30;99.90;;;-0.56;100.00;98492.56;5048371;28;20962;-76
2023/03/03 05:46:51;;;;;;;7.40;3.70;;;-1.40;99.90;;;-0.63;100.00;98504.19;5046864;28;20518;-76
2023/03/03 05:49:19;;;;;;;5.77;3.93;;;-1.60;99.90;;;-0.70;100.00;98502.94;5046987;28;20473;-76
2023/03/03 05:51:51;;;;;;;6.10;3.63;;;-1.60;99.90;;;-0.76;100.00;98508.47;5046281;28;20538;-76
2023/03/03 05:54:22;;;;;;;8.60;4.50;;;-1.70;99.90;;;-0.79;100.00;98506.13;5048305;28;20509;-76
2023/03/03 05:56:52;;;;;;;8.77;3.63;;;-1.80;99.90;;;-0.88;100.00;98501.63;5047272;28;20466;-76
2023/03/03 05:59:22;;;;;;;5.53;4.40;;;-1.90;99.90;;;-0.90;100.00;98512.94;5048844;28;20462;-76
2023/03/03 06:01:52;;;;;;;14.20;4.87;;;-1.90;99.90;;;-0.92;100.00;98510.47;5046359;28;20492;-75
2023/03/03 06:04:22;;;;;;;6.43;4.20;;;-1.90;99.90;;;-0.89;100.00;98512.00;5045028;28;20839;-76
2023/03/03 06:06:54;;;;;;;5.97;3.67;;;-1.90;99.90;;;-0.86;100.00;98502.34;5048553;28;20490;-76
2023/03/03 06:09:25;;;;;;;5.03;3.63;;;-1.80;99.90;;;-0.89;100.00;98502.56;5046247;28;20489;-76
2023/03/03 06:11:54;;;;;;;8.30;4.50;;;-1.90;99.90;;;-0.89;100.00;98517.97;5046402;28;20476;-76
2023/03/03 06:14:24;;;;;;;5.10;3.50;;;-1.90;99.90;;;-0.92;100.00;98514.78;5046859;28;20548;-76
2023/03/03 06:16:56;;;;;;;6.17;3.63;;;-1.90;99.90;;;-0.90;100.00;98513.75;5047511;28;20494;-76
2023/03/03 06:19:26;;;;;;;4.63;3.30;;;-1.90;99.90;;;-0.93;100.00;98508.00;5046911;28;20461;-76
2023/03/03 06:21:57;;;;;;;6.37;4.07;;;-1.90;99.90;;;-0.93;100.00;98508.81;5045671;28;21111;-76
2023/03/03 06:24:30;;;;;;;8.63;4.70;;;-1.80;99.90;;;-0.90;100.00;98512.94;5045268;28;20524;-76
2023/03/03 06:27:01;;;;;;;12.27;4.40;;;-1.80;99.90;;;-0.92;100.00;98504.50;5046195;28;20931;-76
2023/03/03 06:29:30;;;;;;;9.93;4.70;;;-1.80;99.90;;;-0.98;100.00;98510.88;5045305;28;20462;-76
2023/03/03 06:32:01;;;;;;;6.57;3.80;;;-1.90;99.90;;;-0.99;100.00;98516.13;5046385;28;20526;-76
2023/03/03 06:34:31;;;;;;;12.30;4.87;;;-1.90;99.90;;;-0.98;100.00;98516.03;5046654;28;20507;-76
2023/03/03 06:37:03;;;;;;;9.37;5.00;;;-1.90;99.90;;;-0.98;100.00;98521.16;5046338;28;20515;-76
2023/03/03 06:39:33;;;;;;;14.10;4.80;;;-1.90;99.90;;;-0.99;100.00;98522.06;5045490;28;20463;-76
2023/03/03 06:42:02;;;;;;;7.83;4.20;;;-1.90;99.90;;;-0.98;100.00;98518.59;5046546;28;20603;-76
2023/03/03 06:44:32;;;;;;;7.60;4.40;;;-1.90;99.90;;;-0.99;100.00;98522.06;5046998;28;20473;-76
2023/03/03 06:47:01;;;;;;;7.03;4.20;;;-1.90;99.90;;;-1.01;100.00;98531.63;5047838;28;20498;-76
2023/03/03 06:49:30;;;;;;;9.00;4.40;;;-1.90;99.90;;;-1.01;100.00;98541.88;5046898;28;21103;-76
2023/03/03 06:52:10;;;;;;;10.23;4.83;;;-2.00;99.90;;;-0.94;100.00;98540.56;5045810;28;20566;-76
2023/03/03 06:54:39;;;;;;;8.50;4.70;;;-1.90;99.90;;;-0.92;100.00;98551.53;5045802;28;20541;-76
2023/03/03 06:57:26;;;;;;;7.30;4.60;;;-1.80;99.90;;;-0.88;100.00;98550.41;5046486;28;20468;-76
2023/03/03 07:00:00;;;;;;;10.57;5.43;;;-1.70;99.90;;;-0.89;100.00;98553.06;5047035;28;20575;-75
2023/03/03 07:02:30;;;;;;;11.50;4.50;;;-1.80;99.90;;;-0.88;100.00;98555.53;5045976;28;20466;-76
2023/03/03 07:05:01;;;;;;;6.00;4.53;;;-1.80;99.90;;;-0.85;100.00;98554.50;5045921;28;20472;-76
2023/03/03 07:07:33;;;;;;;7.50;4.80;;;-1.80;99.90;;;-0.81;100.00;98554.19;5046970;28;20487;-76
2023/03/03 07:10:17;;;;;;;11.73;5.27;;;-1.70;99.90;;;-0.78;100.00;98571.13;5045191;28;20460;-76
2023/03/03 07:12:48;;;;;;;6.03;4.13;;;-1.70;99.90;;;-0.78;100.00;98561.69;5046590;28;20553;-76
2023/03/03 07:15:23;;;;;;;6.67;4.33;;;-1.70;99.90;;;-0.71;100.00;98560.34;5045751;28;20460;-76
2023/03/03 07:17:58;;;;;;;15.53;4.63;;;-1.60;99.90;;;-0.72;100.00;98561.25;5046554;28;20550;-76
2023/03/03 07:20:35;;;;;;;8.23;5.17;;;-1.60;99.90;;;-0.74;100.00;98567.44;5045192;28;20460;-76
2023/03/03 07:23:21;;;;;;;8.50;5.20;;;-1.70;99.90;;;-0.69;100.00;98571.31;5045923;28;20571;-76
2023/03/03 07:25:52;;;;;;;10.27;5.67;;;-1.60;99.90;;;-0.67;100.00;98572.06;5046732;28;20469;-76
2023/03/03 07:28:25;;;;;;;7.73;4.70;;;-1.50;99.90;;;-0.68;100.00;98575.53;5045143;28;21020;-76
2023/03/03 07:30:58;;;;;;;8.23;5.13;;;-1.50;99.90;;;-0.68;100.00;98583.25;5045985;28;21023;-76
2023/03/03 07:33:29;;;;;;;7.67;4.57;;;-1.50;99.90;;;-0.62;100.00;98574.28;5047049;28;20513;-76
2023/03/03 07:36:02;;;;;;;11.83;5.70;;;-1.50;99.90;;;-0.61;100.00;98578.50;5045610;28;20479;-76
2023/03/03 07:38:40;;;;;;;11.07;6.00;;;-1.50;99.90;;;-0.57;100.00;98577.38;5045596;28;20595;-76
2023/03/03 07:41:19;;;;;;;10.70;5.07;;;-1.40;99.90;;;-0.51;100.00;98579.53;5046966;28;20498;-76
2023/03/03 07:43:53;;;;;;;10.33;5.60;;;-1.30;99.90;;;-0.47;100.00;98590.41;5049497;28;20467;-76
2023/03/03 07:46:28;;;;;;;13.23;5.30;;;-1.30;99.90;;;-0.41;100.00;98592.56;5049409;28;20532;-76
2023/03/03 07:49:00;;;;;;;9.53;5.13;;;-1.30;99.90;;;-0.39;100.00;98593.28;5049210;28;21490;-76
2023/03/03 07:51:40;;;;;;;10.50;6.00;;;-1.20;99.90;;;-0.41;100.00;98590.81;5050172;28;20475;-75
2023/03/03 07:54:30;;;;;;;14.10;6.40;;;-1.20;99.90;;;-0.38;100.00;98594.94;5049418;28;21320;-76
2023/03/03 07:57:15;;;;;;;16.13;6.73;;;-1.20;99.90;;;-0.27;100.00;98587.28;5049370;28;20473;-76
2023/03/03 07:59:49;;;;;;;17.10;6.50;;;-1.00;99.90;;;-0.21;100.00;98594.59;5050413;28;20461;-76
2023/03/03 08:02:39;;;;;;;12.50;6.10;;;-1.00;99.90;;;-0.16;100.00;98595.09;5049621;28;20487;-76
2023/03/03 08:05:36;;;;;;;10.87;5.57;;;-0.90;99.90;;;-0.11;100.00;98596.41;5049236;28;20471;-76
2023/03/03 08:08:29;;;;;;;15.63;7.30;;;-0.80;99.90;;;-0.04;100.00;98599.38;5041579;28;20492;-76
2023/03/03 08:11:00;;;;;;;14.67;6.80;;;-0.70;99.90;;;0.03;100.00;98600.59;5049550;28;20549;-76
2023/03/03 08:13:37;;;;;;;12.43;6.50;;;-0.70;99.90;;;0.07;100.00;98594.28;5048900;28;20461;-76
2023/03/03 08:16:37;;;;;;;13.50;7.40;;;-0.60;99.90;;;0.13;100.00;98596.44;5048762;28;20478;-76
2023/03/03 08:19:07;;;;;;;16.80;8.73;;;-0.60;99.90;;;0.21;100.00;98598.47;5050118;28;20558;-76
2023/03/03 08:21:38;;;;;;;23.53;10.17;;;-0.50;99.90;;;0.30;100.00;98593.50;5048897;28;20541;-76
2023/03/03 08:24:08;;;;;;;27.50;12.40;;;-0.20;99.90;;;0.37;100.00;98605.00;5048605;28;20467;-76
2023/03/03 08:26:39;;;;;;;21.83;10.90;;;-0.30;99.90;;;0.52;100.00;98607.41;5049164;28;20467;-76
2023/03/03 08:29:10;;;;;;;20.70;11.70;;;-0.10;99.90;;;0.68;100.00;98615.63;5049501;28;20963;-76
2023/03/03 08:31:40;;;;;;;29.63;11.13;;;0.10;99.90;;;0.86;100.00;98614.31;5049115;28;20536;-76
2023/03/03 08:34:10;;;;;;;21.87;12.50;;;0.30;99.90;;;1.02;100.00;98614.81;5049703;28;20457;-76
2023/03/03 08:36:39;;;;;;;22.80;11.20;;;0.50;99.90;;;1.16;100.00;98624.91;5049197;28;21365;-76
2023/03/03 08:39:09;;;;;;;23.87;12.17;;;0.60;99.90;;;1.30;100.00;98622.13;5047299;28;20659;-76
2023/03/03 08:41:43;;;;;;;26.43;12.70;;;0.80;99.90;;;1.39;100.00;98616.28;5047133;28;20481;-76
2023/03/03 08:44:13;;;;;;;23.70;13.40;;;0.90;99.90;;;1.49;100.00;98632.69;5048034;28;20460;-76
2023/03/03 08:46:42;;;;;;;25.80;12.13;;;0.90;99.90;;;1.58;100.00;98632.94;5048323;28;20482;-76
2023/03/03 08:49:12;;;;;;;19.70;10.50;;;1.00;99.90;;;1.65;100.00;98632.34;5049850;28;20531;-76
2023/03/03 08:51:42;;;;;;;24.70;11.90;;;1.10;99.90;;;1.72;100.00;98630.94;5048103;28;20463;-76
2023/03/03 08:54:13;;;;;;;24.53;11.97;;;1.20;99.90;;;1.84;100.00;98634.34;5048216;28;20461;-76
2023/03/03 08:56:44;;;;;;;22.20;12.37;;;1.30;99.90;;;1.91;100.00;98638.91;5048655;28;20555;-76
2023/03/03 08:59:14;;;;;;;32.93;12.90;;;1.30;99.90;;;1.99;100.00;98635.72;5049389;28;20503;-76
2023/03/03 09:01:44;;;;;;;21.03;11.20;;;1.50;99.90;;;2.08;100.00;98634.22;5047090;28;20911;-76
2023/03/03 09:04:14;;;;;;;21.60;11.87;;;1.70;99.90;;;2.14;100.00;98624.22;5047966;28;20504;-76
2023/03/03 09:06:44;;;;;;;23.43;11.67;;;1.50;99.90;;;2.19;100.00;98631.59;5048483;28;20967;-76
2023/03/03 09:09:14;;;;;;;21.30;11.63;;;1.60;99.90;;;2.25;100.00;98625.97;5046489;28;20502;-77
2023/03/03 09:11:47;;;;;;;29.90;13.40;;;1.60;99.90;;;2.29;100.00;98635.91;5048327;28;20470;-76
2023/03/03 09:14:19;;;;;;;25.03;11.07;;;1.70;99.90;;;2.38;100.00;98626.63;5048919;28;20478;-76
2023/03/03 09:16:53;;;;;;;23.40;11.60;;;1.80;99.90;;;2.44;100.00;98645.03;5048753;28;20459;-76
2023/03/03 09:19:29;;;;;;;25.60;12.77;;;1.90;99.90;;;2.51;100.00;98643.59;5048420;28;20501;-76
2023/03/03 09:22:18;;;;;;;20.43;11.70;;;1.90;99.90;;;2.58;100.00;98643.94;5047483;28;20477;-76
2023/03/03 09:24:52;;;;;;;20.17;11.23;;;2.20;99.90;;;2.66;100.00;98644.16;5047835;28;20467;-76
2023/03/03 09:27:30;;;;;;;24.10;12.83;;;2.20;99.90;;;2.73;100.00;98649.66;5047681;28;20985;-76
2023/03/03 09:30:25;;;;;;;22.67;12.83;;;2.20;99.90;;;2.80;100.00;98648.22;5048230;28;20463;-76
2023/03/03 09:32:57;;;;;;;21.97;12.23;;;2.30;99.90;;;2.86;100.00;98655.47;5047675;28;20475;-76
2023/03/03 09:35:39;;;;;;;24.63;12.67;;;2.30;99.90;;;2.91;100.00;98640.41;5047038;28;21066;-76
2023/03/03 09:38:27;;;;;;;27.47;13.60;;;2.40;99.90;;;2.96;100.00;98633.94;5047641;28;20475;-76
2023/03/03 09:41:27;;;;;;;23.70;11.30;;;2.40;99.90;;;3.02;100.00;98635.19;5047110;28;20530;-76
2023/03/03 09:44:33;;;;;;;28.47;13.60;;;2.50;99.90;;;3.09;100.00;98643.28;5048167;28;20518;-76
2023/03/03 09:47:28;;;;;;;27.47;13.20;;;2.50;99.90;;;3.12;100.00;98628.34;5046942;28;20539;-76
2023/03/03 09:50:12;;;;;;;24.77;11.17;;;2.60;99.90;;;3.21;100.00;98632.75;5048181;28;20913;-76
2023/03/03 09:52:52;;;;;;;25.60;12.07;;;2.70;99.90;;;3.26;100.00;98635.78;5047545;28;20537;-76
2023/03/03 09:55:38;;;;;;;24.40;12.07;;;2.70;99.90;;;3.30;100.00;98642.31;5047865;28;20522;-77
2023/03/03 09:58:33;;;;;;;29.20;13.83;;;2.70;99.90;;;3.35;100.00;98635.00;5048214;28;20519;-76
2023/03/03 10:01:45;;;;;;;21.93;10.90;;;2.80;99.90;;;3.38;100.00;98634.75;5048410;28;20493;-76
2023/03/03 10:05:00;;;;;;;28.97;13.17;;;2.80;99.90;;;3.41;100.00;98638.84;5044674;28;20468;-76
2023/03/03 10:07:48;;;;;;;24.03;13.10;;;2.90;99.90;;;3.47;100.00;98639.16;5046071;28;20535;-76
2023/03/03 10:10:56;;;;;;;20.23;11.33;;;3.00;99.90;;;3.52;100.00;98647.34;5048593;28;20552;-76
2023/03/03 10:13:53;;;;;;;28.00;13.50;;;2.90;99.90;;;3.55;100.00;98639.34;5046595;28;20549;-76
2023/03/03 10:17:03;;;;;;;24.10;12.30;;;3.00;99.90;;;3.61;100.00;98643.16;5047253;28;20461;-76
2023/03/03 10:19:39;;;;;;;18.77;11.33;;;3.00;99.90;;;3.66;100.00;98653.13;5045487;28;20473;-76
2023/03/03 10:22:23;;;;;;;25.50;10.80;;;3.10;99.90;;;3.69;100.00;98653.69;5046481;28;21002;-76
2023/03/03 10:25:16;;;;;;;21.73;11.13;;;3.00;99.90;;;3.74;100.00;98650.72;5045708;28;20458;-76
2023/03/03 10:28:18;;;;;;;25.33;12.63;;;3.10;99.90;;;3.80;100.00;98648.44;5045040;28;20591;-77
2023/03/03 10:31:03;;;;;;;27.23;12.83;;;3.30;99.90;;;3.84;100.00;98662.75;5046158;28;20476;-76
2023/03/03 10:33:53;;;;;;;30.27;11.57;;;3.30;99.90;;;3.90;100.00;98666.59;5046857;28;20520;-76
2023/03/03 10:36:40;;;;;;;25.43;13.73;;;3.50;99.90;;;3.90;100.00;98662.22;5046460;28;20832;-76
2023/03/03 10:40:04;;;;;;;20.27;12.27;;;3.30;99.90;;;3.98;100.00;98666.75;5046094;28;20557;-76
2023/03/03 10:43:03;;;;;;;23.50;12.00;;;3.60;99.90;;;3.96;100.00;98666.88;5046544;28;20466;-77
2023/03/03 10:46:16;;;;;;;26.03;13.17;;;3.40;99.90;;;4.00;100.00;98663.09;5046172;28;20477;-76
2023/03/03 10:49:22;;;;;;;25.77;12.90;;;3.50;99.90;;;4.03;100.00;98667.16;5043750;28;20546;-76